sensor_id;sensor_type;location;lat;lon;timestamp;P1;durP1;ratioP1;P2;durP2;ratioP2
815;SDS011;25928;51.062;13.752;2023-04-06T00:01:40;8.43;;;5.37;;
815;SDS011;25928;51.062;13.752;2023-04-06T00:04:06;7.67;;;5.53;;
815;SDS011;25928;51.062;13.752;2023-04-06T00:06:32;5.03;;;4.53;;
815;SDS011;25928;51.062;13.752;2023-04-06T00:08:58;4.23;;;3.83;;
815;SDS011;25928;51.062;13.752;2023-04-06T00:11:24;4.77;;;4.27;;
815;SDS011;25928;51.062;13.752;2023-04-06T00:13:50;10.30;;;5.60;;
815;SDS011;25928;51.062;13.752;2023-04-06T00:16:16;5.43;;;4.93;;
815;SDS011;25928;51.062;13.752;2023-04-06T00:18:42;5.97;;;4.87;;
815;SDS011;25928;51.062;13.752;2023-04-06T00:21:08;6.30;;;5.20;;
815;SDS011;25928;51.062;13.752;2023-04-06T00:23:36;5.93;;;5.03;;
815;SDS011;25928;51.062;13.752;2023-04-06T00:26:01;5.40;;;4.90;;
815;SDS011;25928;51.062;13.752;2023-04-06T00:28:27;7.57;;;4.70;;
815;SDS011;25928;51.062;13.752;2023-04-06T00:30:54;7.80;;;5.40;;
815;SDS011;25928;51.062;13.752;2023-04-06T00:33:20;6.90;;;4.97;;
815;SDS011;25928;51.062;13.752;2023-04-06T00:35:47;7.87;;;4.80;;
815;SDS011;25928;51.062;13.752;2023-04-06T00:38:14;6.80;;;5.20;;
815;SDS011;25928;51.062;13.752;2023-04-06T00:40:40;7.73;;;6.00;;
815;SDS011;25928;51.062;13.752;2023-04-06T00:43:07;5.00;;;4.50;;
815;SDS011;25928;51.062;13.752;2023-04-06T00:45:35;6.57;;;4.90;;
815;SDS011;25928;51.062;13.752;2023-04-06T00:48:01;9.00;;;4.57;;
815;SDS011;25928;51.062;13.752;2023-04-06T00:50:27;5.70;;;4.97;;
815;SDS011;25928;51.062;13.752;2023-04-06T00:52:53;5.40;;;4.30;;
815;SDS011;25928;51.062;13.752;2023-04-06T00:55:20;5.80;;;4.33;;
815;SDS011;25928;51.062;13.752;2023-04-06T00:57:46;6.67;;;4.27;;
815;SDS011;25928;51.062;13.752;2023-04-06T01:00:12;5.03;;;4.17;;
815;SDS011;25928;51.062;13.752;2023-04-06T01:02:39;4.20;;;3.80;;
815;SDS011;25928;51.062;13.752;2023-04-06T01:05:05;5.57;;;4.30;;
815;SDS011;25928;51.062;13.752;2023-04-06T01:07:31;7.70;;;4.50;;
815;SDS011;25928;51.062;13.752;2023-04-06T01:09:57;5.20;;;4.20;;
815;SDS011;25928;51.062;13.752;2023-04-06T01:12:23;9.93;;;4.50;;
815;SDS011;25928;51.062;13.752;2023-04-06T01:14:49;5.60;;;4.27;;
815;SDS011;25928;51.062;13.752;2023-04-06T01:17:15;6.33;;;4.90;;
815;SDS011;25928;51.062;13.752;2023-04-06T01:19:41;7.23;;;4.63;;
815;SDS011;25928;51.062;13.752;2023-04-06T01:22:06;5.90;;;4.67;;
815;SDS011;25928;51.062;13.752;2023-04-06T01:24:32;4.50;;;4.10;;
815;SDS011;25928;51.062;13.752;2023-04-06T01:26:58;5.30;;;4.30;;
815;SDS011;25928;51.062;13.752;2023-04-06T01:29:24;4.13;;;3.73;;
815;SDS011;25928;51.062;13.752;2023-04-06T01:31:50;7.10;;;4.87;;
815;SDS011;25928;51.062;13.752;2023-04-06T01:34:16;5.20;;;4.17;;
815;SDS011;25928;51.062;13.752;2023-04-06T01:36:42;6.53;;;5.43;;
815;SDS011;25928;51.062;13.752;2023-04-06T01:39:07;4.40;;;3.93;;
815;SDS011;25928;51.062;13.752;2023-04-06T01:41:33;6.70;;;5.10;;
815;SDS011;25928;51.062;13.752;2023-04-06T01:43:59;5.47;;;4.03;;
815;SDS011;25928;51.062;13.752;2023-04-06T01:46:25;7.13;;;4.63;;
815;SDS011;25928;51.062;13.752;2023-04-06T01:48:51;5.03;;;4.53;;
815;SDS011;25928;51.062;13.752;2023-04-06T01:51:17;6.10;;;4.87;;
815;SDS011;25928;51.062;13.752;2023-04-06T01:53:42;6.53;;;5.10;;
815;SDS011;25928;51.062;13.752;2023-04-06T01:56:08;6.40;;;5.00;;
815;SDS011;25928;51.062;13.752;2023-04-06T01:58:34;7.30;;;4.97;;
815;SDS011;25928;51.062;13.752;2023-04-06T02:01:00;8.63;;;6.00;;
815;SDS011;25928;51.062;13.752;2023-04-06T02:03:25;6.63;;;4.00;;
815;SDS011;25928;51.062;13.752;2023-04-06T02:05:51;6.40;;;5.30;;
815;SDS011;25928;51.062;13.752;2023-04-06T02:08:17;5.83;;;4.80;;
815;SDS011;25928;51.062;13.752;2023-04-06T02:10:42;5.10;;;4.30;;
815;SDS011;25928;51.062;13.752;2023-04-06T02:13:08;5.90;;;4.37;;
815;SDS011;25928;51.062;13.752;2023-04-06T02:15:34;5.20;;;4.30;;
815;SDS011;25928;51.062;13.752;2023-04-06T02:17:59;5.77;;;5.10;;
815;SDS011;25928;51.062;13.752;2023-04-06T02:20:25;8.00;;;4.67;;
815;SDS011;25928;51.062;13.752;2023-04-06T02:22:51;5.70;;;4.27;;
815;SDS011;25928;51.062;13.752;2023-04-06T02:25:17;6.10;;;5.00;;
815;SDS011;25928;51.062;13.752;2023-04-06T02:27:42;6.57;;;5.30;;
815;SDS011;25928;51.062;13.752;2023-04-06T02:30:08;5.40;;;4.40;;
815;SDS011;25928;51.062;13.752;2023-04-06T02:32:34;5.40;;;4.43;;
815;SDS011;25928;51.062;13.752;2023-04-06T02:35:00;5.50;;;4.90;;
815;SDS011;25928;51.062;13.752;2023-04-06T02:37:26;5.27;;;4.20;;
815;SDS011;25928;51.062;13.752;2023-04-06T02:39:51;5.57;;;4.97;;
815;SDS011;25928;51.062;13.752;2023-04-06T02:42:17;6.77;;;4.70;;
815;SDS011;25928;51.062;13.752;2023-04-06T02:44:43;9.00;;;4.57;;
815;SDS011;25928;51.062;13.752;2023-04-06T02:47:09;6.40;;;4.73;;
815;SDS011;25928;51.062;13.752;2023-04-06T02:49:35;8.17;;;5.67;;
815;SDS011;25928;51.062;13.752;2023-04-06T02:52:01;6.53;;;5.00;;
815;SDS011;25928;51.062;13.752;2023-04-06T02:54:27;6.03;;;4.50;;
815;SDS011;25928;51.062;13.752;2023-04-06T02:56:53;12.57;;;6.43;;
815;SDS011;25928;51.062;13.752;2023-04-06T02:59:18;6.00;;;5.20;;
815;SDS011;25928;51.062;13.752;2023-04-06T03:01:44;8.90;;;5.53;;
815;SDS011;25928;51.062;13.752;2023-04-06T03:04:10;6.20;;;5.60;;
815;SDS011;25928;51.062;13.752;2023-04-06T03:06:36;5.77;;;5.20;;
815;SDS011;25928;51.062;13.752;2023-04-06T03:09:02;5.40;;;4.77;;
815;SDS011;25928;51.062;13.752;2023-04-06T03:11:27;7.90;;;5.00;;
815;SDS011;25928;51.062;13.752;2023-04-06T03:13:53;6.10;;;4.97;;
815;SDS011;25928;51.062;13.752;2023-04-06T03:16:19;7.13;;;4.50;;
815;SDS011;25928;51.062;13.752;2023-04-06T03:18:45;5.70;;;4.50;;
815;SDS011;25928;51.062;13.752;2023-04-06T03:21:12;5.23;;;4.73;;
815;SDS011;25928;51.062;13.752;2023-04-06T03:23:41;7.07;;;5.03;;
815;SDS011;25928;51.062;13.752;2023-04-06T03:26:07;9.00;;;5.33;;
815;SDS011;25928;51.062;13.752;2023-04-06T03:28:33;7.87;;;5.93;;
815;SDS011;25928;51.062;13.752;2023-04-06T03:30:58;6.87;;;4.70;;
815;SDS011;25928;51.062;13.752;2023-04-06T03:33:24;6.70;;;5.13;;
815;SDS011;25928;51.062;13.752;2023-04-06T03:35:53;5.83;;;5.23;;
815;SDS011;25928;51.062;13.752;2023-04-06T03:38:19;5.63;;;4.97;;
815;SDS011;25928;51.062;13.752;2023-04-06T03:40:45;7.00;;;5.13;;
815;SDS011;25928;51.062;13.752;2023-04-06T03:43:11;7.53;;;5.40;;
815;SDS011;25928;51.062;13.752;2023-04-06T03:45:37;5.80;;;4.70;;
815;SDS011;25928;51.062;13.752;2023-04-06T03:48:03;8.10;;;6.20;;
815;SDS011;25928;51.062;13.752;2023-04-06T03:50:28;5.90;;;5.10;;
815;SDS011;25928;51.062;13.752;2023-04-06T03:52:54;6.03;;;5.43;;
815;SDS011;25928;51.062;13.752;2023-04-06T03:55:20;6.10;;;5.07;;
815;SDS011;25928;51.062;13.752;2023-04-06T03:57:46;7.20;;;5.23;;
815;SDS011;25928;51.062;13.752;2023-04-06T04:00:12;6.47;;;5.67;;
815;SDS011;25928;51.062;13.752;2023-04-06T04:02:38;11.10;;;6.10;;
815;SDS011;25928;51.062;13.752;2023-04-06T04:05:04;7.40;;;6.10;;
815;SDS011;25928;51.062;13.752;2023-04-06T04:07:30;9.00;;;6.87;;
815;SDS011;25928;51.062;13.752;2023-04-06T04:09:55;8.60;;;5.10;;
815;SDS011;25928;51.062;13.752;2023-04-06T04:12:21;8.23;;;5.73;;
815;SDS011;25928;51.062;13.752;2023-04-06T04:14:47;7.60;;;5.27;;
815;SDS011;25928;51.062;13.752;2023-04-06T04:17:12;6.73;;;4.90;;
815;SDS011;25928;51.062;13.752;2023-04-06T04:19:38;9.03;;;5.73;;
815;SDS011;25928;51.062;13.752;2023-04-06T04:22:04;8.00;;;5.93;;
815;SDS011;25928;51.062;13.752;2023-04-06T04:24:30;8.27;;;5.90;;
815;SDS011;25928;51.062;13.752;2023-04-06T04:26:56;7.60;;;5.70;;
815;SDS011;25928;51.062;13.752;2023-04-06T04:29:22;8.13;;;5.90;;
815;SDS011;25928;51.062;13.752;2023-04-06T04:31:48;6.73;;;5.10;;
815;SDS011;25928;51.062;13.752;2023-04-06T04:34:14;7.00;;;5.27;;
815;SDS011;25928;51.062;13.752;2023-04-06T04:36:40;6.00;;;4.40;;
815;SDS011;25928;51.062;13.752;2023-04-06T04:39:07;6.90;;;5.50;;
815;SDS011;25928;51.062;13.752;2023-04-06T04:41:32;8.20;;;5.77;;
815;SDS011;25928;51.062;13.752;2023-04-06T04:43:58;8.60;;;5.10;;
815;SDS011;25928;51.062;13.752;2023-04-06T04:46:24;7.10;;;5.00;;
815;SDS011;25928;51.062;13.752;2023-04-06T04:48:50;8.33;;;4.70;;
815;SDS011;25928;51.062;13.752;2023-04-06T04:51:15;8.20;;;5.30;;
815;SDS011;25928;51.062;13.752;2023-04-06T04:53:41;8.80;;;5.97;;
815;SDS011;25928;51.062;13.752;2023-04-06T04:56:06;9.90;;;6.00;;
815;SDS011;25928;51.062;13.752;2023-04-06T04:58:32;7.70;;;5.60;;
815;SDS011;25928;51.062;13.752;2023-04-06T05:00:58;7.30;;;5.13;;
815;SDS011;25928;51.062;13.752;2023-04-06T05:03:24;9.67;;;6.50;;
815;SDS011;25928;51.062;13.752;2023-04-06T05:05:51;15.47;;;5.77;;
815;SDS011;25928;51.062;13.752;2023-04-06T05:08:17;9.20;;;6.20;;
815;SDS011;25928;51.062;13.752;2023-04-06T05:10:43;7.47;;;6.60;;
815;SDS011;25928;51.062;13.752;2023-04-06T05:13:09;8.67;;;6.10;;
815;SDS011;25928;51.062;13.752;2023-04-06T05:15:35;8.67;;;6.37;;
815;SDS011;25928;51.062;13.752;2023-04-06T05:18:03;8.60;;;6.03;;
815;SDS011;25928;51.062;13.752;2023-04-06T05:20:29;9.67;;;6.23;;
815;SDS011;25928;51.062;13.752;2023-04-06T05:22:55;7.07;;;6.17;;
815;SDS011;25928;51.062;13.752;2023-04-06T05:25:21;6.40;;;5.70;;
815;SDS011;25928;51.062;13.752;2023-04-06T05:27:47;8.80;;;5.80;;
815;SDS011;25928;51.062;13.752;2023-04-06T05:30:13;8.23;;;6.47;;
815;SDS011;25928;51.062;13.752;2023-04-06T05:32:39;8.90;;;6.37;;
815;SDS011;25928;51.062;13.752;2023-04-06T05:35:04;10.00;;;6.70;;
815;SDS011;25928;51.062;13.752;2023-04-06T05:37:30;7.33;;;6.03;;
815;SDS011;25928;51.062;13.752;2023-04-06T05:39:56;9.30;;;6.23;;
815;SDS011;25928;51.062;13.752;2023-04-06T05:42:22;6.70;;;6.10;;
815;SDS011;25928;51.062;13.752;2023-04-06T05:44:48;10.20;;;6.50;;
815;SDS011;25928;51.062;13.752;2023-04-06T05:47:14;10.70;;;6.73;;
815;SDS011;25928;51.062;13.752;2023-04-06T05:49:41;10.70;;;5.23;;
815;SDS011;25928;51.062;13.752;2023-04-06T05:52:07;6.73;;;5.93;;
815;SDS011;25928;51.062;13.752;2023-04-06T05:54:33;8.73;;;5.87;;
815;SDS011;25928;51.062;13.752;2023-04-06T05:57:01;9.77;;;6.27;;
815;SDS011;25928;51.062;13.752;2023-04-06T05:59:27;8.67;;;5.97;;
815;SDS011;25928;51.062;13.752;2023-04-06T06:01:55;9.57;;;7.67;;
815;SDS011;25928;51.062;13.752;2023-04-06T06:04:20;8.53;;;5.93;;
815;SDS011;25928;51.062;13.752;2023-04-06T06:06:46;10.50;;;7.03;;
815;SDS011;25928;51.062;13.752;2023-04-06T06:09:12;8.40;;;6.20;;
815;SDS011;25928;51.062;13.752;2023-04-06T06:11:37;7.33;;;6.47;;
815;SDS011;25928;51.062;13.752;2023-04-06T06:14:03;7.87;;;6.27;;
815;SDS011;25928;51.062;13.752;2023-04-06T06:16:29;11.03;;;6.60;;
815;SDS011;25928;51.062;13.752;2023-04-06T06:18:54;10.13;;;6.30;;
815;SDS011;25928;51.062;13.752;2023-04-06T06:21:20;11.13;;;7.27;;
815;SDS011;25928;51.062;13.752;2023-04-06T06:23:46;12.40;;;7.60;;
815;SDS011;25928;51.062;13.752;2023-04-06T06:26:14;12.60;;;6.70;;
815;SDS011;25928;51.062;13.752;2023-04-06T06:28:40;8.23;;;6.80;;
815;SDS011;25928;51.062;13.752;2023-04-06T06:31:05;11.23;;;7.20;;
815;SDS011;25928;51.062;13.752;2023-04-06T06:33:32;9.37;;;7.17;;
815;SDS011;25928;51.062;13.752;2023-04-06T06:35:57;7.87;;;6.93;;
815;SDS011;25928;51.062;13.752;2023-04-06T06:38:23;8.87;;;6.80;;
815;SDS011;25928;51.062;13.752;2023-04-06T06:40:49;7.73;;;6.90;;
815;SDS011;25928;51.062;13.752;2023-04-06T06:43:14;8.23;;;7.13;;
815;SDS011;25928;51.062;13.752;2023-04-06T06:45:41;11.23;;;7.07;;
815;SDS011;25928;51.062;13.752;2023-04-06T06:48:07;8.17;;;6.60;;
815;SDS011;25928;51.062;13.752;2023-04-06T06:50:33;8.33;;;6.70;;
815;SDS011;25928;51.062;13.752;2023-04-06T06:52:58;10.20;;;7.60;;
815;SDS011;25928;51.062;13.752;2023-04-06T06:55:24;7.67;;;6.53;;
815;SDS011;25928;51.062;13.752;2023-04-06T06:57:51;10.67;;;6.60;;
815;SDS011;25928;51.062;13.752;2023-04-06T07:00:18;8.43;;;6.77;;
815;SDS011;25928;51.062;13.752;2023-04-06T07:02:48;8.37;;;6.60;;
815;SDS011;25928;51.062;13.752;2023-04-06T07:05:14;11.03;;;8.00;;
815;SDS011;25928;51.062;13.752;2023-04-06T07:07:40;9.40;;;7.20;;
815;SDS011;25928;51.062;13.752;2023-04-06T07:10:07;7.97;;;6.80;;
815;SDS011;25928;51.062;13.752;2023-04-06T07:12:33;10.67;;;6.73;;
815;SDS011;25928;51.062;13.752;2023-04-06T07:14:58;7.77;;;6.53;;
815;SDS011;25928;51.062;13.752;2023-04-06T07:17:24;9.60;;;7.10;;
815;SDS011;25928;51.062;13.752;2023-04-06T07:19:50;9.17;;;6.80;;
815;SDS011;25928;51.062;13.752;2023-04-06T07:22:16;7.30;;;6.07;;
815;SDS011;25928;51.062;13.752;2023-04-06T07:24:41;8.03;;;6.90;;
815;SDS011;25928;51.062;13.752;2023-04-06T07:27:07;7.60;;;6.20;;
815;SDS011;25928;51.062;13.752;2023-04-06T07:29:33;8.63;;;6.57;;
815;SDS011;25928;51.062;13.752;2023-04-06T07:31:58;7.30;;;6.57;;
815;SDS011;25928;51.062;13.752;2023-04-06T07:34:24;6.87;;;5.80;;
815;SDS011;25928;51.062;13.752;2023-04-06T07:36:50;6.23;;;5.63;;
815;SDS011;25928;51.062;13.752;2023-04-06T07:39:17;7.60;;;6.83;;
815;SDS011;25928;51.062;13.752;2023-04-06T07:41:43;8.10;;;7.17;;
815;SDS011;25928;51.062;13.752;2023-04-06T07:44:09;7.20;;;6.17;;
815;SDS011;25928;51.062;13.752;2023-04-06T07:46:34;9.73;;;6.53;;
815;SDS011;25928;51.062;13.752;2023-04-06T07:49:01;7.57;;;6.33;;
815;SDS011;25928;51.062;13.752;2023-04-06T07:51:27;8.73;;;6.60;;
815;SDS011;25928;51.062;13.752;2023-04-06T07:53:53;7.73;;;6.20;;
815;SDS011;25928;51.062;13.752;2023-04-06T07:56:19;6.40;;;5.77;;
815;SDS011;25928;51.062;13.752;2023-04-06T07:58:46;8.13;;;6.20;;
815;SDS011;25928;51.062;13.752;2023-04-06T08:01:11;7.10;;;6.23;;
815;SDS011;25928;51.062;13.752;2023-04-06T08:03:37;7.87;;;6.23;;
815;SDS011;25928;51.062;13.752;2023-04-06T08:06:03;8.20;;;6.80;;
815;SDS011;25928;51.062;13.752;2023-04-06T08:08:29;7.53;;;6.03;;
815;SDS011;25928;51.062;13.752;2023-04-06T08:10:55;9.00;;;6.90;;
815;SDS011;25928;51.062;13.752;2023-04-06T08:13:21;10.77;;;6.13;;
815;SDS011;25928;51.062;13.752;2023-04-06T08:15:47;7.53;;;6.10;;
815;SDS011;25928;51.062;13.752;2023-04-06T08:18:13;15.43;;;7.33;;
815;SDS011;25928;51.062;13.752;2023-04-06T08:20:39;7.17;;;6.47;;
815;SDS011;25928;51.062;13.752;2023-04-06T08:23:05;8.90;;;6.23;;
815;SDS011;25928;51.062;13.752;2023-04-06T08:25:31;8.87;;;5.93;;
815;SDS011;25928;51.062;13.752;2023-04-06T08:27:59;8.87;;;6.30;;
815;SDS011;25928;51.062;13.752;2023-04-06T08:30:25;7.57;;;6.77;;
815;SDS011;25928;51.062;13.752;2023-04-06T08:32:50;8.43;;;6.50;;
815;SDS011;25928;51.062;13.752;2023-04-06T08:35:16;6.40;;;5.90;;
815;SDS011;25928;51.062;13.752;2023-04-06T08:37:42;6.87;;;6.27;;
815;SDS011;25928;51.062;13.752;2023-04-06T08:40:07;9.57;;;7.27;;
815;SDS011;25928;51.062;13.752;2023-04-06T08:42:34;8.20;;;7.00;;
815;SDS011;25928;51.062;13.752;2023-04-06T08:45:09;5.63;;;5.13;;
815;SDS011;25928;51.062;13.752;2023-04-06T08:47:38;7.17;;;6.10;;
815;SDS011;25928;51.062;13.752;2023-04-06T08:50:04;6.03;;;5.43;;
815;SDS011;25928;51.062;13.752;2023-04-06T08:52:31;7.20;;;5.57;;
815;SDS011;25928;51.062;13.752;2023-04-06T08:54:58;6.93;;;5.20;;
815;SDS011;25928;51.062;13.752;2023-04-06T08:57:24;8.03;;;5.20;;
815;SDS011;25928;51.062;13.752;2023-04-06T08:59:51;6.00;;;4.90;;
815;SDS011;25928;51.062;13.752;2023-04-06T09:02:18;7.20;;;4.40;;
815;SDS011;25928;51.062;13.752;2023-04-06T09:04:47;5.23;;;4.43;;
815;SDS011;25928;51.062;13.752;2023-04-06T09:07:15;5.37;;;4.90;;
815;SDS011;25928;51.062;13.752;2023-04-06T09:09:41;5.20;;;4.30;;
815;SDS011;25928;51.062;13.752;2023-04-06T09:12:21;5.90;;;5.30;;
815;SDS011;25928;51.062;13.752;2023-04-06T09:14:51;8.47;;;5.40;;
815;SDS011;25928;51.062;13.752;2023-04-06T09:17:21;5.53;;;5.03;;
815;SDS011;25928;51.062;13.752;2023-04-06T09:19:48;7.30;;;6.37;;
815;SDS011;25928;51.062;13.752;2023-04-06T09:22:14;5.70;;;4.97;;
815;SDS011;25928;51.062;13.752;2023-04-06T09:24:50;4.93;;;4.53;;
815;SDS011;25928;51.062;13.752;2023-04-06T09:27:17;5.20;;;4.47;;
815;SDS011;25928;51.062;13.752;2023-04-06T09:30:02;6.23;;;5.63;;
815;SDS011;25928;51.062;13.752;2023-04-06T09:32:45;5.50;;;5.00;;
815;SDS011;25928;51.062;13.752;2023-04-06T09:35:14;6.27;;;5.60;;
815;SDS011;25928;51.062;13.752;2023-04-06T09:37:41;5.43;;;4.43;;
815;SDS011;25928;51.062;13.752;2023-04-06T09:40:07;5.43;;;4.60;;
815;SDS011;25928;51.062;13.752;2023-04-06T09:42:33;7.60;;;5.53;;
815;SDS011;25928;51.062;13.752;2023-04-06T09:45:02;5.90;;;5.30;;
815;SDS011;25928;51.062;13.752;2023-04-06T09:47:30;6.10;;;4.90;;
815;SDS011;25928;51.062;13.752;2023-04-06T09:49:59;5.20;;;4.70;;
815;SDS011;25928;51.062;13.752;2023-04-06T09:52:38;5.40;;;4.90;;
815;SDS011;25928;51.062;13.752;2023-04-06T09:55:12;4.50;;;4.10;;
815;SDS011;25928;51.062;13.752;2023-04-06T09:58:07;5.93;;;4.07;;
815;SDS011;25928;51.062;13.752;2023-04-06T10:00:48;4.83;;;4.37;;
815;SDS011;25928;51.062;13.752;2023-04-06T10:06:03;5.17;;;4.63;;
815;SDS011;25928;51.062;13.752;2023-04-06T10:08:31;6.60;;;4.60;;
815;SDS011;25928;51.062;13.752;2023-04-06T10:11:00;5.07;;;4.60;;
815;SDS011;25928;51.062;13.752;2023-04-06T10:13:26;4.63;;;4.10;;
815;SDS011;25928;51.062;13.752;2023-04-06T10:15:52;7.60;;;4.13;;
815;SDS011;25928;51.062;13.752;2023-04-06T10:18:19;4.60;;;4.20;;
815;SDS011;25928;51.062;13.752;2023-04-06T10:26:12;6.00;;;5.50;;
815;SDS011;25928;51.062;13.752;2023-04-06T10:28:41;3.90;;;3.50;;
815;SDS011;25928;51.062;13.752;2023-04-06T10:31:08;3.80;;;3.50;;
815;SDS011;25928;51.062;13.752;2023-04-06T10:33:33;4.20;;;3.90;;
815;SDS011;25928;51.062;13.752;2023-04-06T10:36:15;3.77;;;3.47;;
815;SDS011;25928;51.062;13.752;2023-04-06T10:38:53;5.77;;;4.07;;
815;SDS011;25928;51.062;13.752;2023-04-06T10:41:19;4.10;;;3.70;;
815;SDS011;25928;51.062;13.752;2023-04-06T10:43:45;3.90;;;3.60;;
815;SDS011;25928;51.062;13.752;2023-04-06T10:46:24;3.70;;;3.37;;
815;SDS011;25928;51.062;13.752;2023-04-06T10:48:51;8.83;;;3.70;;
815;SDS011;25928;51.062;13.752;2023-04-06T10:51:17;3.20;;;2.90;;
815;SDS011;25928;51.062;13.752;2023-04-06T10:53:47;4.07;;;3.77;;
815;SDS011;25928;51.062;13.752;2023-04-06T10:56:14;4.17;;;3.83;;
815;SDS011;25928;51.062;13.752;2023-04-06T10:58:46;4.70;;;3.93;;
815;SDS011;25928;51.062;13.752;2023-04-06T11:01:14;7.00;;;3.90;;
815;SDS011;25928;51.062;13.752;2023-04-06T11:03:48;3.33;;;3.03;;
815;SDS011;25928;51.062;13.752;2023-04-06T11:06:26;4.50;;;4.10;;
815;SDS011;25928;51.062;13.752;2023-04-06T11:08:54;4.50;;;4.10;;
815;SDS011;25928;51.062;13.752;2023-04-06T11:11:21;3.80;;;3.50;;
815;SDS011;25928;51.062;13.752;2023-04-06T11:13:49;4.77;;;4.37;;
815;SDS011;25928;51.062;13.752;2023-04-06T11:16:20;6.10;;;4.27;;
815;SDS011;25928;51.062;13.752;2023-04-06T11:19:00;4.90;;;4.40;;
815;SDS011;25928;51.062;13.752;2023-04-06T11:21:42;4.73;;;4.33;;
815;SDS011;25928;51.062;13.752;2023-04-06T11:29:06;5.63;;;4.73;;
815;SDS011;25928;51.062;13.752;2023-04-06T11:31:37;5.13;;;4.73;;
815;SDS011;25928;51.062;13.752;2023-04-06T11:34:13;3.90;;;3.50;;
815;SDS011;25928;51.062;13.752;2023-04-06T11:36:42;4.47;;;4.00;;
815;SDS011;25928;51.062;13.752;2023-04-06T11:39:09;5.23;;;4.73;;
815;SDS011;25928;51.062;13.752;2023-04-06T11:41:35;6.27;;;4.27;;
815;SDS011;25928;51.062;13.752;2023-04-06T11:44:01;4.60;;;4.20;;
815;SDS011;25928;51.062;13.752;2023-04-06T11:46:30;4.83;;;3.83;;
815;SDS011;25928;51.062;13.752;2023-04-06T11:49:00;6.60;;;3.77;;
815;SDS011;25928;51.062;13.752;2023-04-06T11:51:27;5.07;;;4.60;;
815;SDS011;25928;51.062;13.752;2023-04-06T11:53:53;4.73;;;4.27;;
815;SDS011;25928;51.062;13.752;2023-04-06T11:56:23;5.33;;;4.83;;
815;SDS011;25928;51.062;13.752;2023-04-06T11:58:56;5.23;;;4.70;;
815;SDS011;25928;51.062;13.752;2023-04-06T12:01:23;4.87;;;4.37;;
815;SDS011;25928;51.062;13.752;2023-04-06T12:03:50;7.27;;;4.60;;
815;SDS011;25928;51.062;13.752;2023-04-06T12:06:16;5.40;;;4.70;;
815;SDS011;25928;51.062;13.752;2023-04-06T12:08:42;5.13;;;4.70;;
815;SDS011;25928;51.062;13.752;2023-04-06T12:11:08;5.30;;;4.90;;
815;SDS011;25928;51.062;13.752;2023-04-06T12:13:33;6.90;;;4.60;;
815;SDS011;25928;51.062;13.752;2023-04-06T12:15:59;6.17;;;4.70;;
815;SDS011;25928;51.062;13.752;2023-04-06T12:18:25;4.93;;;4.53;;
815;SDS011;25928;51.062;13.752;2023-04-06T12:20:51;6.53;;;5.00;;
815;SDS011;25928;51.062;13.752;2023-04-06T12:23:17;6.23;;;5.00;;
815;SDS011;25928;51.062;13.752;2023-04-06T12:25:44;6.10;;;4.83;;
815;SDS011;25928;51.062;13.752;2023-04-06T12:28:10;5.20;;;4.10;;
815;SDS011;25928;51.062;13.752;2023-04-06T12:30:36;4.43;;;4.10;;
815;SDS011;25928;51.062;13.752;2023-04-06T12:33:02;5.57;;;5.07;;
815;SDS011;25928;51.062;13.752;2023-04-06T12:35:28;5.50;;;5.00;;
815;SDS011;25928;51.062;13.752;2023-04-06T12:37:53;9.33;;;5.93;;
815;SDS011;25928;51.062;13.752;2023-04-06T12:40:19;6.07;;;5.40;;
815;SDS011;25928;51.062;13.752;2023-04-06T12:42:45;5.60;;;5.10;;
815;SDS011;25928;51.062;13.752;2023-04-06T12:45:11;5.93;;;4.90;;
815;SDS011;25928;51.062;13.752;2023-04-06T12:47:37;4.87;;;4.50;;
815;SDS011;25928;51.062;13.752;2023-04-06T12:50:03;6.10;;;5.30;;
815;SDS011;25928;51.062;13.752;2023-04-06T12:52:30;5.90;;;5.40;;
815;SDS011;25928;51.062;13.752;2023-04-06T12:54:57;5.50;;;4.93;;
815;SDS011;25928;51.062;13.752;2023-04-06T12:57:25;5.40;;;4.93;;
815;SDS011;25928;51.062;13.752;2023-04-06T12:59:51;5.10;;;4.70;;
815;SDS011;25928;51.062;13.752;2023-04-06T13:02:17;4.90;;;4.40;;
815;SDS011;25928;51.062;13.752;2023-04-06T13:04:45;5.93;;;5.53;;
815;SDS011;25928;51.062;13.752;2023-04-06T13:07:10;5.80;;;5.20;;
815;SDS011;25928;51.062;13.752;2023-04-06T13:09:36;5.90;;;5.17;;
815;SDS011;25928;51.062;13.752;2023-04-06T13:12:02;4.73;;;4.33;;
815;SDS011;25928;51.062;13.752;2023-04-06T13:14:28;6.00;;;5.50;;
815;SDS011;25928;51.062;13.752;2023-04-06T13:16:54;6.90;;;5.10;;
815;SDS011;25928;51.062;13.752;2023-04-06T13:19:20;6.30;;;5.37;;
815;SDS011;25928;51.062;13.752;2023-04-06T13:21:46;5.80;;;5.30;;
815;SDS011;25928;51.062;13.752;2023-04-06T13:24:12;5.57;;;5.07;;
815;SDS011;25928;51.062;13.752;2023-04-06T13:26:39;7.33;;;4.80;;
815;SDS011;25928;51.062;13.752;2023-04-06T13:29:05;5.43;;;4.80;;
815;SDS011;25928;51.062;13.752;2023-04-06T13:31:31;6.37;;;5.67;;
815;SDS011;25928;51.062;13.752;2023-04-06T13:33:57;6.80;;;6.10;;
815;SDS011;25928;51.062;13.752;2023-04-06T13:36:23;6.00;;;5.40;;
815;SDS011;25928;51.062;13.752;2023-04-06T13:38:49;6.00;;;4.93;;
815;SDS011;25928;51.062;13.752;2023-04-06T13:41:19;8.00;;;5.30;;
815;SDS011;25928;51.062;13.752;2023-04-06T13:43:46;7.60;;;4.60;;
815;SDS011;25928;51.062;13.752;2023-04-06T13:46:12;4.93;;;4.63;;
815;SDS011;25928;51.062;13.752;2023-04-06T13:48:38;6.20;;;5.10;;
815;SDS011;25928;51.062;13.752;2023-04-06T13:51:10;5.93;;;5.20;;
815;SDS011;25928;51.062;13.752;2023-04-06T13:53:37;5.70;;;5.20;;
815;SDS011;25928;51.062;13.752;2023-04-06T13:56:04;5.60;;;5.10;;
815;SDS011;25928;51.062;13.752;2023-04-06T13:58:30;4.90;;;4.50;;
815;SDS011;25928;51.062;13.752;2023-04-06T14:01:01;5.23;;;4.80;;
815;SDS011;25928;51.062;13.752;2023-04-06T14:03:31;5.33;;;4.77;;
815;SDS011;25928;51.062;13.752;2023-04-06T14:05:57;5.20;;;4.70;;
815;SDS011;25928;51.062;13.752;2023-04-06T14:08:23;8.03;;;4.90;;
815;SDS011;25928;51.062;13.752;2023-04-06T14:10:48;5.70;;;5.20;;
815;SDS011;25928;51.062;13.752;2023-04-06T14:13:14;4.97;;;4.50;;
815;SDS011;25928;51.062;13.752;2023-04-06T14:15:40;4.50;;;4.20;;
815;SDS011;25928;51.062;13.752;2023-04-06T14:18:07;5.90;;;5.30;;
815;SDS011;25928;51.062;13.752;2023-04-06T14:20:33;5.97;;;5.37;;
815;SDS011;25928;51.062;13.752;2023-04-06T14:23:03;4.77;;;4.03;;
815;SDS011;25928;51.062;13.752;2023-04-06T14:25:28;5.07;;;4.67;;
815;SDS011;25928;51.062;13.752;2023-04-06T14:27:56;6.30;;;5.07;;
815;SDS011;25928;51.062;13.752;2023-04-06T14:30:22;5.50;;;5.00;;
815;SDS011;25928;51.062;13.752;2023-04-06T14:32:48;5.00;;;4.60;;
815;SDS011;25928;51.062;13.752;2023-04-06T14:35:13;5.47;;;4.97;;
815;SDS011;25928;51.062;13.752;2023-04-06T14:37:39;7.13;;;4.43;;
815;SDS011;25928;51.062;13.752;2023-04-06T14:40:05;5.10;;;4.60;;
815;SDS011;25928;51.062;13.752;2023-04-06T14:42:31;4.70;;;4.10;;
815;SDS011;25928;51.062;13.752;2023-04-06T14:44:57;5.40;;;4.90;;
815;SDS011;25928;51.062;13.752;2023-04-06T14:47:22;9.30;;;4.70;;
815;SDS011;25928;51.062;13.752;2023-04-06T14:49:50;7.77;;;5.70;;
815;SDS011;25928;51.062;13.752;2023-04-06T14:52:16;7.67;;;6.33;;
815;SDS011;25928;51.062;13.752;2023-04-06T14:54:42;4.20;;;3.90;;
815;SDS011;25928;51.062;13.752;2023-04-06T14:57:08;5.50;;;5.00;;
815;SDS011;25928;51.062;13.752;2023-04-06T14:59:33;4.70;;;4.30;;
815;SDS011;25928;51.062;13.752;2023-04-06T15:02:00;5.40;;;4.90;;
815;SDS011;25928;51.062;13.752;2023-04-06T15:04:27;5.33;;;4.83;;
815;SDS011;25928;51.062;13.752;2023-04-06T15:06:53;5.40;;;4.90;;
815;SDS011;25928;51.062;13.752;2023-04-06T15:09:20;5.10;;;4.60;;
815;SDS011;25928;51.062;13.752;2023-04-06T15:11:46;5.00;;;4.50;;